Kingsport, TN

8:05 PM EDT on June 26, 2017 (GMT -0400)
Near Meadowview | | Change Station

Elev 1302 ft 36.51 °N, 82.57 °W | Updated 18 seconds ago

Partly Cloudy
Partly Cloudy
72.6 °F
Feels Like 75 °F
N
0.0
Wind Variable Wind from West

Today
High -- | Low -- °F
--% Chance of Precip.
Yesterday
High -- | Low -- °F
Precip. -- in
Pressure 30.04 in
Visibility 10.0 miles
Clouds Scattered Clouds 5000 ft
Scattered Clouds 8000 ft
Scattered Clouds 18000 ft
Heat Index 75 °F
Dew Point 62 °F
Humidity 70%
Rainfall 0.00 in
Snow Depth Not available.
6:13 AM 8:52 PM
Waxing Crescent, 12% visible
METAR KTRI 262353Z 24009KT 10SM SCT050 SCT080 SCT180 23/13 A3009 RMK AO2 SLP171 T02280133 10261 20228 55006
Pressure 30.04 in
Visibility 10.0 miles
Clouds Scattered Clouds 5000 ft
Scattered Clouds 8000 ft
Scattered Clouds 18000 ft
Heat Index 75 °F
Dew Point 62 °F
Humidity 70%
Rainfall 0.00 in
Snow Depth Not available.
6:13 AM 8:52 PM
Waxing Crescent, 12% visible
METAR KTRI 262353Z 24009KT 10SM SCT050 SCT080 SCT180 23/13 A3009 RMK AO2 SLP171 T02280133 10261 20228 55006

Get Severe Weather Alerts

Thanks for signing up!

Be on the lookout for a verification email in your inbox.

You'll start receiving the daily forecast at 6 AM.

×

10-Day Weather Forecast

Almanac

Astronomy

Jun. 26, 2017 Rise Set
Actual Time
Civil Twilight
Nautical Twilight
Astronomical Twilight
Moon
Length of Visible Light
Length of Day
Tomorrow will be .
, % of the Moon is Illuminated

Today's Extremes

State Highs State Lows

Community

WunderPhotos

Category 6

Welcome to Category 6. This is the collective home for Weather Underground's featured writeups by Dr. Jeff Masters (right), Bob Henson (left), Chris Burt, and other regular contributors.

Nearby

Air Quality

  Air Quality AQ Index Pollutant
Not available.

Snow Depth

Station Depth Elevation

Earthquake Activity

City Distance Mag. Time & Date
Minimum magnitude displayed is 2.5.

Coastal Water Temperatures

Place Temperature

Stations

Nearby Weather Stations

Station Location Temp. Windchill Dew Point Humidity Wind Precip. Elev Updated Type
                   

Watches & Warnings

There are currently no watches in effect.